Oyster Bay Cove, New York
Current Conditions -  °F | °C
As of 10:20 AM on Monday 24 Nov 2014 (Local Time) from KFRG Reporting Station
Haze Haze  
Wind Chill: 61°   Ceiling: 300
Heat Index: 61°   Visibility: 1mi
Dew Point: 59°   Wind: 16mph
Humidity: 93%   Direction: 210°SSW
Pressure: 29.72"   Gusts: 26mph
Location:  40.8277°N, 73.4994°W
Report Text: KFRG 241520Z 21014G23KT 1SM BR OVC003 16/15 A2972 RMK AO2 T01610150
Loading
Personal Weather Stations






























Interactive Weather Map New forecast layout! Learn more

10-Day Weather Forecast

Advertisements
Track Severe Weather on mobile